createdAt,value
2023-01-06T00:00:11.485Z,3.70
2023-01-06T00:02:16.597Z,3.60
2023-01-06T00:04:21.510Z,4.40
2023-01-06T00:06:29.502Z,4.18
2023-01-06T00:08:37.148Z,4.50
2023-01-06T00:10:42.148Z,4.40
2023-01-06T00:12:47.626Z,3.92
2023-01-06T00:14:52.642Z,4.20
2023-01-06T00:16:57.575Z,4.28
2023-01-06T00:19:06.536Z,3.58
2023-01-06T00:21:12.458Z,3.88
2023-01-06T00:23:17.790Z,3.65
2023-01-06T00:25:25.484Z,3.90
2023-01-06T00:27:30.899Z,4.03
2023-01-06T00:29:35.725Z,3.53
2023-01-06T00:31:40.694Z,3.47
2023-01-06T00:33:46.398Z,4.50
2023-01-06T00:35:51.211Z,4.20
2023-01-06T00:37:56.221Z,3.90
2023-01-06T00:40:01.070Z,3.95
2023-01-06T00:42:08.963Z,3.75
2023-01-06T00:44:17.099Z,4.15
2023-01-06T00:46:23.112Z,4.00
2023-01-06T00:48:28.259Z,3.83
2023-01-06T00:50:39.354Z,4.05
2023-01-06T00:52:44.298Z,4.60
2023-01-06T00:54:49.192Z,3.97
2023-01-06T00:56:55.937Z,3.55
2023-01-06T00:59:05.057Z,3.90
2023-01-06T01:01:11.561Z,3.47
2023-01-06T01:03:16.573Z,3.88
2023-01-06T01:05:22.859Z,4.40
2023-01-06T01:07:29.311Z,4.32
2023-01-06T01:09:34.970Z,3.53
2023-01-06T01:11:52.601Z,4.18
2023-01-06T01:13:58.649Z,3.90
2023-01-06T01:16:11.060Z,4.43
2023-01-06T01:18:15.939Z,4.05
2023-01-06T01:20:21.025Z,3.88
2023-01-06T01:22:26.782Z,3.65
2023-01-06T01:24:34.875Z,3.80
2023-01-06T01:26:42.283Z,4.00
2023-01-06T01:28:49.161Z,3.58
2023-01-06T01:31:05.653Z,3.80
2023-01-06T01:33:14.023Z,3.72
2023-01-06T01:35:19.172Z,3.83
2023-01-06T01:37:24.084Z,4.13
2023-01-06T01:39:34.779Z,4.18
2023-01-06T01:41:42.281Z,4.07
2023-01-06T01:43:48.391Z,4.35
2023-01-06T01:45:55.842Z,3.80
2023-01-06T01:48:03.738Z,3.90
2023-01-06T01:50:16.291Z,3.20
2023-01-06T01:52:21.973Z,4.25
2023-01-06T01:54:33.875Z,3.92
2023-01-06T01:56:43.014Z,3.42
2023-01-06T01:58:51.899Z,3.53
2023-01-06T02:00:56.832Z,3.70
2023-01-06T02:03:02.388Z,4.78
2023-01-06T02:05:09.128Z,3.92
2023-01-06T02:07:16.846Z,3.70
2023-01-06T02:09:25.878Z,3.60
2023-01-06T02:11:33.270Z,2.95
2023-01-06T02:13:41.038Z,3.47
2023-01-06T02:15:46.443Z,3.28
2023-01-06T02:18:27.560Z,3.50
2023-01-06T02:20:51.336Z,3.30
2023-01-06T02:23:20.969Z,3.38
2023-01-06T02:25:57.062Z,3.30
2023-01-06T02:28:48.011Z,3.13
2023-01-06T02:31:33.915Z,2.95
2023-01-06T02:33:45.705Z,2.67
2023-01-06T02:36:00.854Z,2.67
2023-01-06T02:38:14.094Z,2.88
2023-01-06T02:40:30.403Z,2.40
2023-01-06T02:42:41.000Z,2.60
2023-01-06T02:44:52.335Z,2.47
2023-01-06T02:47:14.044Z,3.03
2023-01-06T02:49:29.623Z,2.40
2023-01-06T02:51:40.687Z,3.13
2023-01-06T02:53:52.017Z,2.53
2023-01-06T02:56:00.205Z,2.38
2023-01-06T02:58:10.427Z,2.40
2023-01-06T03:00:19.691Z,2.40
2023-01-06T03:02:26.393Z,2.60
2023-01-06T03:04:37.778Z,2.30
2023-01-06T03:06:45.142Z,2.53
2023-01-06T03:08:52.183Z,2.20
2023-01-06T03:10:57.849Z,2.20
2023-01-06T03:13:06.098Z,2.17
2023-01-06T03:15:15.377Z,1.85
2023-01-06T03:17:20.923Z,2.63
2023-01-06T03:19:28.701Z,2.47
2023-01-06T03:21:42.032Z,2.30
2023-01-06T03:23:47.168Z,2.47
2023-01-06T03:25:52.099Z,2.50
2023-01-06T03:27:57.472Z,2.67
2023-01-06T03:30:02.959Z,3.72
2023-01-06T03:32:13.447Z,2.30
2023-01-06T03:34:24.507Z,2.83
2023-01-06T03:36:36.943Z,2.85
2023-01-06T03:38:52.013Z,2.22
2023-01-06T03:41:01.024Z,2.35
2023-01-06T03:43:16.652Z,2.45
2023-01-06T03:45:42.442Z,2.30
2023-01-06T03:47:55.539Z,2.30
2023-01-06T03:52:16.946Z,2.50
2023-01-06T03:54:30.160Z,2.20
2023-01-06T03:58:40.965Z,2.78
2023-01-06T04:00:45.844Z,2.65
2023-01-06T04:02:50.965Z,2.65
2023-01-06T04:05:10.956Z,2.65
2023-01-06T04:07:18.673Z,2.55
2023-01-06T04:09:23.541Z,2.25
2023-01-06T04:11:40.761Z,2.45
2023-01-06T04:13:45.711Z,2.35
2023-01-06T04:15:50.660Z,2.40
2023-01-06T04:17:55.979Z,2.53
2023-01-06T04:20:01.081Z,2.45
2023-01-06T04:22:06.014Z,2.40
2023-01-06T04:24:15.392Z,2.22
2023-01-06T04:26:20.531Z,2.55
2023-01-06T04:28:25.777Z,2.50
2023-01-06T04:30:31.478Z,2.53
2023-01-06T04:32:39.701Z,2.28
2023-01-06T04:34:45.051Z,2.45
2023-01-06T04:36:49.981Z,2.25
2023-01-06T04:38:54.645Z,2.53
2023-01-06T04:41:04.745Z,2.30
2023-01-06T04:43:14.792Z,2.20
2023-01-06T04:45:19.585Z,1.92
2023-01-06T04:47:24.484Z,2.55
2023-01-06T04:49:32.360Z,2.75
2023-01-06T04:51:37.129Z,2.60
2023-01-06T04:53:44.132Z,2.70
2023-01-06T04:55:49.496Z,2.85
2023-01-06T04:57:57.020Z,2.90
2023-01-06T05:00:02.089Z,2.95
2023-01-06T05:02:06.911Z,2.40
2023-01-06T05:04:11.946Z,2.80
2023-01-06T05:06:20.216Z,2.60
2023-01-06T05:08:25.106Z,2.70
2023-01-06T05:10:29.924Z,2.47
2023-01-06T05:12:35.801Z,2.58
2023-01-06T05:14:43.388Z,2.75
2023-01-06T05:16:48.427Z,2.60
2023-01-06T05:18:53.535Z,2.75
2023-01-06T05:21:02.461Z,2.72
2023-01-06T05:23:07.251Z,2.80
2023-01-06T05:25:12.425Z,2.58
2023-01-06T05:27:17.663Z,2.90
2023-01-06T05:29:22.544Z,2.65
2023-01-06T05:31:29.902Z,2.80
2023-01-06T05:33:35.226Z,2.58
2023-01-06T05:35:40.325Z,2.65
2023-01-06T05:37:45.192Z,2.42
2023-01-06T05:39:50.051Z,2.70
2023-01-06T05:41:54.835Z,2.95
2023-01-06T05:44:00.595Z,3.00
2023-01-06T05:46:08.383Z,2.95
2023-01-06T05:48:18.553Z,2.60
2023-01-06T05:50:23.307Z,2.70
2023-01-06T05:52:28.172Z,2.55
2023-01-06T05:54:32.846Z,3.03
2023-01-06T05:56:38.582Z,2.65
2023-01-06T05:58:44.222Z,3.10
2023-01-06T06:00:48.969Z,2.60
2023-01-06T06:02:53.651Z,2.95
2023-01-06T06:05:00.895Z,2.88
2023-01-06T06:07:07.617Z,2.60
2023-01-06T06:09:15.615Z,2.55
2023-01-06T06:11:22.532Z,3.58
2023-01-06T06:13:28.930Z,3.10
2023-01-06T06:15:34.335Z,3.08
2023-01-06T06:17:39.316Z,3.47
2023-01-06T06:19:44.261Z,4.30
2023-01-06T06:21:51.793Z,4.07
2023-01-06T06:23:58.113Z,4.18
2023-01-06T06:26:02.846Z,4.18
2023-01-06T06:28:07.755Z,4.07
2023-01-06T06:30:14.199Z,3.70
2023-01-06T06:32:19.101Z,4.43
2023-01-06T06:34:25.996Z,3.65
2023-01-06T06:36:34.178Z,3.90
2023-01-06T06:38:41.842Z,4.00
2023-01-06T06:40:47.449Z,3.67
2023-01-06T06:42:54.557Z,3.25
2023-01-06T06:44:59.454Z,2.97
2023-01-06T06:47:04.141Z,3.50
2023-01-06T06:49:10.092Z,3.05
2023-01-06T06:51:17.314Z,2.67
2023-01-06T06:53:22.122Z,2.55
2023-01-06T06:55:29.517Z,3.15
2023-01-06T06:57:34.328Z,3.20
2023-01-06T06:59:40.099Z,3.75
2023-01-06T07:01:44.982Z,2.72
2023-01-06T07:03:50.516Z,2.75
2023-01-06T07:05:55.991Z,3.25
2023-01-06T07:08:01.021Z,3.15
2023-01-06T07:10:06.559Z,2.58
2023-01-06T07:12:14.699Z,2.90
2023-01-06T07:14:19.590Z,2.65
2023-01-06T07:16:26.810Z,2.50
2023-01-06T07:18:33.083Z,2.78
2023-01-06T07:20:41.973Z,2.55
2023-01-06T07:22:47.884Z,2.60
2023-01-06T07:24:52.643Z,2.50
2023-01-06T07:26:57.449Z,2.55
2023-01-06T07:29:07.844Z,3.35
2023-01-06T07:31:12.944Z,2.95
2023-01-06T07:33:18.218Z,3.65
2023-01-06T07:35:23.130Z,3.17
2023-01-06T07:37:27.940Z,3.25
2023-01-06T07:39:33.075Z,3.42
2023-01-06T07:41:37.800Z,3.67
2023-01-06T07:43:43.174Z,4.07
2023-01-06T07:45:52.074Z,2.92
2023-01-06T07:47:59.242Z,2.90
2023-01-06T07:50:04.391Z,3.75
2023-01-06T07:52:13.517Z,3.35
2023-01-06T07:54:18.687Z,3.47
2023-01-06T07:56:25.165Z,3.40
2023-01-06T07:58:32.880Z,3.47
2023-01-06T08:00:37.885Z,2.80
2023-01-06T08:02:45.791Z,3.00
2023-01-06T08:04:53.169Z,3.40
2023-01-06T08:06:58.015Z,2.85
2023-01-06T08:09:04.649Z,3.10
2023-01-06T08:11:11.733Z,3.33
2023-01-06T08:13:17.931Z,2.83
2023-01-06T08:15:24.364Z,2.92
2023-01-06T08:17:29.457Z,3.83
2023-01-06T08:19:40.416Z,3.20
2023-01-06T08:21:45.153Z,3.75
2023-01-06T08:23:49.967Z,2.78
2023-01-06T08:25:54.788Z,2.95
2023-01-06T08:28:00.869Z,3.03
2023-01-06T08:30:06.323Z,2.83
2023-01-06T08:32:11.213Z,2.72
2023-01-06T08:34:18.014Z,2.33
2023-01-06T08:36:26.712Z,2.88
2023-01-06T08:38:32.875Z,2.63
2023-01-06T08:40:37.694Z,2.55
2023-01-06T08:42:42.744Z,2.70
2023-01-06T08:44:47.679Z,2.70
2023-01-06T08:46:52.480Z,2.70
2023-01-06T08:49:01.634Z,2.72
2023-01-06T08:51:07.637Z,2.50
2023-01-06T08:53:15.735Z,2.50
2023-01-06T08:55:20.702Z,2.50
2023-01-06T08:57:25.366Z,2.70
2023-01-06T08:59:30.311Z,2.70
2023-01-06T09:01:38.060Z,2.60
2023-01-06T09:03:45.860Z,2.95
2023-01-06T09:05:55.579Z,2.72
2023-01-06T09:08:01.771Z,4.07
2023-01-06T09:10:12.625Z,2.50
2023-01-06T09:12:17.836Z,2.83
2023-01-06T09:14:22.603Z,2.38
2023-01-06T09:16:29.468Z,1.83
2023-01-06T09:18:34.363Z,3.25
2023-01-06T09:20:40.351Z,2.00
2023-01-06T09:22:45.124Z,2.13
2023-01-06T09:24:50.008Z,2.47
2023-01-06T09:26:57.547Z,2.15
2023-01-06T09:29:02.276Z,1.83
2023-01-06T09:31:07.390Z,2.33
2023-01-06T09:33:12.345Z,2.35
2023-01-06T09:35:17.873Z,2.20
2023-01-06T09:37:22.813Z,1.83
2023-01-06T09:39:27.943Z,1.67
2023-01-06T09:41:46.591Z,2.17
2023-01-06T09:43:56.298Z,2.00
2023-01-06T09:46:04.035Z,2.78
2023-01-06T09:48:11.711Z,2.38
2023-01-06T09:50:33.414Z,1.92
2023-01-06T09:52:46.685Z,1.92
2023-01-06T09:54:58.099Z,1.80
2023-01-06T09:57:06.245Z,2.08
2023-01-06T09:59:21.686Z,1.50
2023-01-06T10:01:34.053Z,1.50
2023-01-06T10:03:39.447Z,1.77
2023-01-06T10:05:51.303Z,1.67
2023-01-06T10:08:02.874Z,1.65
2023-01-06T10:10:20.698Z,1.60
2023-01-06T10:12:35.759Z,1.95
2023-01-06T10:14:50.010Z,1.60
2023-01-06T10:17:07.896Z,1.65
2023-01-06T10:19:22.040Z,1.55
2023-01-06T10:21:32.646Z,1.55
2023-01-06T10:24:07.945Z,1.88
2023-01-06T10:26:16.597Z,1.30
2023-01-06T10:28:32.723Z,1.45
2023-01-06T10:30:44.306Z,1.52
2023-01-06T10:32:53.825Z,1.23
2023-01-06T10:34:59.417Z,1.75
2023-01-06T10:37:06.783Z,1.30
2023-01-06T10:39:18.756Z,1.50
2023-01-06T10:41:31.243Z,1.80
2023-01-06T10:43:36.169Z,1.58
2023-01-06T10:45:45.143Z,1.40
2023-01-06T10:47:49.928Z,2.00
2023-01-06T10:49:55.354Z,1.33
2023-01-06T10:52:03.559Z,1.45
2023-01-06T10:54:11.759Z,2.03
2023-01-06T10:56:19.556Z,2.65
2023-01-06T10:58:30.140Z,1.58
2023-01-06T11:00:37.884Z,1.52
2023-01-06T11:02:49.508Z,1.85
2023-01-06T11:04:59.282Z,2.08
2023-01-06T11:07:11.487Z,1.55
2023-01-06T11:09:37.587Z,1.90
2023-01-06T11:11:54.555Z,1.73
2023-01-06T11:14:08.017Z,1.98
2023-01-06T11:16:22.152Z,1.67
2023-01-06T11:18:35.439Z,1.33
2023-01-06T11:20:46.605Z,1.90
2023-01-06T11:22:51.493Z,1.50
2023-01-06T11:24:57.884Z,1.75
2023-01-06T11:27:17.946Z,1.85
2023-01-06T11:29:31.094Z,1.50
2023-01-06T11:33:50.954Z,1.45
2023-01-06T11:35:56.082Z,1.55
2023-01-06T11:38:04.605Z,3.08
2023-01-06T11:40:21.213Z,1.27
2023-01-06T11:42:26.367Z,1.80
2023-01-06T11:44:34.555Z,1.67
2023-01-06T11:46:43.621Z,1.45
2023-01-06T11:49:00.600Z,1.95
2023-01-06T11:51:06.649Z,2.25
2023-01-06T11:53:20.079Z,1.65
2023-01-06T11:55:29.713Z,2.08
2023-01-06T11:57:43.996Z,1.60
2023-01-06T12:00:03.188Z,1.60
2023-01-06T12:02:15.275Z,1.88
2023-01-06T12:04:28.209Z,1.90
2023-01-06T12:06:37.058Z,2.03
2023-01-06T12:08:45.113Z,2.00
2023-01-06T12:10:54.768Z,2.10
2023-01-06T12:12:59.871Z,1.80
2023-01-06T12:15:04.917Z,1.65
2023-01-06T12:17:14.051Z,2.08
2023-01-06T12:19:24.913Z,2.03
2023-01-06T12:21:34.031Z,1.90
2023-01-06T12:23:41.341Z,1.90
2023-01-06T12:25:48.150Z,2.58
2023-01-06T12:27:58.641Z,1.63
2023-01-06T12:30:07.450Z,1.98
2023-01-06T12:32:19.842Z,2.03
2023-01-06T12:34:34.910Z,2.28
2023-01-06T12:36:45.237Z,1.90
2023-01-06T12:38:55.573Z,1.85
2023-01-06T12:41:05.617Z,2.45
2023-01-06T12:43:21.363Z,2.00
2023-01-06T12:45:35.163Z,2.42
2023-01-06T12:47:43.909Z,2.03
2023-01-06T12:49:55.159Z,1.90
2023-01-06T12:52:02.216Z,1.73
2023-01-06T12:54:11.397Z,2.10
2023-01-06T12:56:33.041Z,2.10
2023-01-06T12:58:45.521Z,1.58
2023-01-06T13:00:54.864Z,1.75
2023-01-06T13:03:18.654Z,1.80
2023-01-06T13:05:32.798Z,1.52
2023-01-06T13:07:46.212Z,1.50
2023-01-06T13:10:04.815Z,1.30
2023-01-06T13:12:20.571Z,1.60
2023-01-06T13:14:31.032Z,1.30
2023-01-06T13:16:41.800Z,1.45
2023-01-06T13:18:50.044Z,1.20
2023-01-06T13:21:02.100Z,1.35
2023-01-06T13:23:22.166Z,2.55
2023-01-06T13:25:45.262Z,1.40
2023-01-06T13:28:04.794Z,2.40
2023-01-06T13:30:22.040Z,1.80
2023-01-06T13:32:45.585Z,1.77
2023-01-06T13:35:20.451Z,1.58
2023-01-06T13:38:02.747Z,1.38
2023-01-06T13:40:15.563Z,1.30
2023-01-06T13:42:22.657Z,1.70
2023-01-06T13:44:31.450Z,1.20
2023-01-06T13:46:37.332Z,1.73
2023-01-06T13:48:45.417Z,1.67
2023-01-06T13:50:50.438Z,1.33
2023-01-06T13:52:58.019Z,1.58
2023-01-06T13:55:14.397Z,1.60
2023-01-06T13:57:35.760Z,1.70
2023-01-06T13:59:51.839Z,1.50
2023-01-06T14:01:59.926Z,1.40
2023-01-06T14:04:34.879Z,1.27
2023-01-06T14:06:47.909Z,1.20
2023-01-06T14:09:02.878Z,1.33
2023-01-06T14:11:24.830Z,1.40
2023-01-06T14:13:37.886Z,1.23
2023-01-06T14:15:55.469Z,1.08
2023-01-06T14:18:00.759Z,1.35
2023-01-06T14:20:05.776Z,0.88
2023-01-06T14:22:17.708Z,1.00
2023-01-06T14:24:31.487Z,0.90
2023-01-06T14:26:54.883Z,1.35
2023-01-06T14:29:34.733Z,1.35
2023-01-06T14:31:42.050Z,1.92
2023-01-06T14:33:47.778Z,1.35
2023-01-06T14:35:53.726Z,3.20
2023-01-06T14:38:01.950Z,1.30
2023-01-06T14:40:11.612Z,1.60
2023-01-06T14:42:21.032Z,1.55
2023-01-06T14:44:47.108Z,1.58
2023-01-06T14:47:05.279Z,1.30
2023-01-06T14:49:32.485Z,1.55
2023-01-06T14:51:38.031Z,1.60
2023-01-06T14:53:55.246Z,1.60
2023-01-06T14:56:22.019Z,1.45
2023-01-06T14:58:51.645Z,1.80
2023-01-06T15:01:03.678Z,2.53
2023-01-06T15:03:25.081Z,2.30
2023-01-06T15:05:39.224Z,2.45
2023-01-06T15:08:06.166Z,2.67
2023-01-06T15:13:17.839Z,3.30
2023-01-06T15:15:26.479Z,3.70
2023-01-06T15:17:34.468Z,4.35
2023-01-06T15:19:40.627Z,3.20
2023-01-06T15:21:48.526Z,3.47
2023-01-06T15:23:54.162Z,3.38
2023-01-06T15:26:01.660Z,4.03
2023-01-06T15:28:10.367Z,4.15
2023-01-06T15:30:22.117Z,3.90
2023-01-06T15:32:29.708Z,4.30
2023-01-06T15:34:37.451Z,4.65
2023-01-06T15:36:45.859Z,4.90
2023-01-06T15:38:51.466Z,5.43
2023-01-06T15:40:56.623Z,6.60
2023-01-06T15:43:01.930Z,6.68
2023-01-06T15:45:24.185Z,6.60
2023-01-06T15:47:35.609Z,6.50
2023-01-06T15:49:43.858Z,6.50
2023-01-06T15:51:56.906Z,7.55
2023-01-06T15:54:02.385Z,5.05
2023-01-06T15:56:08.258Z,5.85
2023-01-06T15:58:22.635Z,4.95
2023-01-06T16:00:34.575Z,5.65
2023-01-06T16:02:42.109Z,5.70
2023-01-06T16:04:49.212Z,3.50
2023-01-06T16:06:54.188Z,3.45
2023-01-06T16:09:30.873Z,3.58
2023-01-06T16:11:48.739Z,3.50
2023-01-06T16:14:01.536Z,4.05
2023-01-06T16:17:00.746Z,4.68
2023-01-06T16:24:24.456Z,3.45
2023-01-06T16:26:34.459Z,4.05
2023-01-06T16:28:42.961Z,3.13
2023-01-06T16:31:07.092Z,3.42
2023-01-06T16:33:42.458Z,3.08
2023-01-06T16:35:47.234Z,3.53
2023-01-06T16:37:52.641Z,3.17
2023-01-06T16:40:22.366Z,4.03
2023-01-06T16:43:14.011Z,3.55
2023-01-06T16:45:55.846Z,3.85
2023-01-06T16:53:53.117Z,2.85
2023-01-06T16:56:21.372Z,3.58
2023-01-06T16:58:39.311Z,3.00
2023-01-06T17:00:51.584Z,2.78
2023-01-06T17:02:57.628Z,2.95
2023-01-06T17:05:02.741Z,2.78
2023-01-06T17:07:13.274Z,2.95
2023-01-06T17:09:21.925Z,3.60
2023-01-06T17:11:28.207Z,3.22
2023-01-06T17:13:39.298Z,3.88
2023-01-06T17:15:45.181Z,3.05
2023-01-06T17:17:50.201Z,3.45
2023-01-06T17:19:55.074Z,2.85
2023-01-06T17:22:04.778Z,3.13
2023-01-06T17:24:15.051Z,3.08
2023-01-06T17:26:21.672Z,3.83
2023-01-06T17:28:26.867Z,4.35
2023-01-06T17:30:34.459Z,4.43
2023-01-06T17:32:42.826Z,3.80
2023-01-06T17:34:47.655Z,4.03
2023-01-06T17:36:54.440Z,4.00
2023-01-06T17:39:01.033Z,3.80
2023-01-06T17:41:12.886Z,4.25
2023-01-06T17:43:32.378Z,5.10
2023-01-06T17:45:37.336Z,4.68
2023-01-06T17:47:47.895Z,5.72
2023-01-06T17:49:55.051Z,5.32
2023-01-06T17:52:00.011Z,5.47
2023-01-06T17:54:17.597Z,5.13
2023-01-06T17:56:25.757Z,5.82
2023-01-06T17:58:35.048Z,5.85
2023-01-06T18:00:41.040Z,6.20
2023-01-06T18:02:49.109Z,5.75
2023-01-06T18:04:54.977Z,6.70
2023-01-06T18:07:02.876Z,6.22
2023-01-06T18:09:19.132Z,5.90
2023-01-06T18:11:32.873Z,6.05
2023-01-06T18:13:39.264Z,7.03
2023-01-06T18:15:44.851Z,7.43
2023-01-06T18:17:49.632Z,8.25
2023-01-06T18:19:54.649Z,8.10
2023-01-06T18:22:00.702Z,7.57
2023-01-06T18:24:19.149Z,8.38
2023-01-06T18:26:41.944Z,8.70
2023-01-06T18:28:47.249Z,9.68
2023-01-06T18:30:56.926Z,9.32
2023-01-06T18:33:01.986Z,10.82
2023-01-06T18:35:08.370Z,11.13
2023-01-06T18:37:16.286Z,10.23
2023-01-06T18:39:22.264Z,10.15
2023-01-06T18:41:27.780Z,11.10
2023-01-06T18:43:36.363Z,11.48
2023-01-06T18:45:41.262Z,10.18
2023-01-06T18:50:41.301Z,10.80
2023-01-06T18:52:48.778Z,11.05
2023-01-06T18:54:53.935Z,11.23
2023-01-06T18:57:13.508Z,12.73
2023-01-06T18:59:27.652Z,12.98
2023-01-06T19:01:40.904Z,13.23
2023-01-06T19:03:56.337Z,13.80
2023-01-06T19:06:34.838Z,13.48
2023-01-06T19:08:43.646Z,12.75
2023-01-06T19:10:52.894Z,13.63
2023-01-06T19:13:02.140Z,12.20
2023-01-06T19:15:26.382Z,11.68
2023-01-06T19:17:36.153Z,11.85
2023-01-06T19:19:43.416Z,12.25
2023-01-06T19:21:48.387Z,13.35
2023-01-06T19:23:55.218Z,12.57
2023-01-06T19:26:10.381Z,11.27
2023-01-06T19:28:20.022Z,10.55
2023-01-06T19:30:51.912Z,9.43
2023-01-06T19:32:57.144Z,8.77
2023-01-06T19:35:02.435Z,8.38
2023-01-06T19:37:14.599Z,8.48
2023-01-06T19:39:30.988Z,9.07
2023-01-06T19:41:41.512Z,7.40
2023-01-06T19:43:50.805Z,7.45
2023-01-06T19:45:58.620Z,8.55
2023-01-06T19:48:09.375Z,8.52
2023-01-06T19:50:21.219Z,8.20
2023-01-06T19:52:37.419Z,8.18
2023-01-06T19:54:48.276Z,9.38
2023-01-06T19:56:54.152Z,9.20
2023-01-06T19:59:01.715Z,9.57
2023-01-06T20:01:16.142Z,8.18
2023-01-06T20:03:30.113Z,9.52
2023-01-06T20:05:34.946Z,8.60
2023-01-06T20:07:40.399Z,8.65
2023-01-06T20:09:47.524Z,9.77
2023-01-06T20:11:53.147Z,9.95
2023-01-06T20:13:58.105Z,9.57
2023-01-06T20:16:03.083Z,9.20
2023-01-06T20:18:11.415Z,9.98
2023-01-06T20:20:16.916Z,8.68
2023-01-06T20:22:23.793Z,10.05
2023-01-06T20:24:28.920Z,9.90
2023-01-06T20:26:38.645Z,9.18
2023-01-06T20:28:43.683Z,9.73
2023-01-06T20:30:48.634Z,10.75
2023-01-06T20:32:53.511Z,9.90
2023-01-06T20:35:01.094Z,10.52
2023-01-06T20:37:06.025Z,9.88
2023-01-06T20:39:12.858Z,10.85
2023-01-06T20:41:17.968Z,10.65
2023-01-06T20:43:22.639Z,10.85
2023-01-06T20:45:28.319Z,9.95
2023-01-06T20:47:35.798Z,11.45
2023-01-06T20:49:41.601Z,10.18
2023-01-06T20:51:49.158Z,10.98
2023-01-06T20:53:57.009Z,10.13
2023-01-06T20:56:05.939Z,9.88
2023-01-06T20:58:14.051Z,10.63
2023-01-06T21:00:19.509Z,11.00
2023-01-06T21:02:26.673Z,11.25
2023-01-06T21:04:34.657Z,10.60
2023-01-06T21:06:44.667Z,11.25
2023-01-06T21:08:53.531Z,10.02
2023-01-06T21:11:13.123Z,10.63
2023-01-06T21:13:42.930Z,12.73
2023-01-06T21:15:50.191Z,12.13
2023-01-06T21:17:55.120Z,11.88
2023-01-06T21:20:02.634Z,11.93
2023-01-06T21:22:07.851Z,11.25
2023-01-06T21:24:21.510Z,11.65
2023-01-06T21:26:26.559Z,11.43
2023-01-06T21:28:35.806Z,12.32
2023-01-06T21:30:40.825Z,11.95
2023-01-06T21:32:46.437Z,11.75
2023-01-06T21:34:51.759Z,11.88
2023-01-06T21:36:56.484Z,11.57
2023-01-06T21:39:01.273Z,11.45
2023-01-06T21:41:21.300Z,11.48
2023-01-06T21:43:26.246Z,10.13
2023-01-06T21:45:31.218Z,10.35
2023-01-06T21:47:36.109Z,9.18
2023-01-06T21:49:42.006Z,7.30
2023-01-06T21:51:51.407Z,8.88
2023-01-06T21:53:56.427Z,8.18
2023-01-06T21:56:01.633Z,8.52
2023-01-06T21:58:12.604Z,8.38
2023-01-06T22:00:20.126Z,8.85
2023-01-06T22:02:25.059Z,8.32
2023-01-06T22:07:46.447Z,7.32
2023-01-06T22:09:51.515Z,7.85
2023-01-06T22:11:56.689Z,7.55
2023-01-06T22:14:05.517Z,7.50
2023-01-06T22:16:11.332Z,6.97
2023-01-06T22:18:16.310Z,8.07
2023-01-06T22:20:28.084Z,7.30
2023-01-06T22:22:36.258Z,6.80
2023-01-06T22:24:41.427Z,7.68
2023-01-06T22:26:46.345Z,7.07
2023-01-06T22:28:51.042Z,7.00
2023-01-06T22:30:59.731Z,7.68
2023-01-06T22:33:04.946Z,7.40
2023-01-06T22:35:11.685Z,7.82
2023-01-06T22:37:16.494Z,7.63
2023-01-06T22:39:21.319Z,7.03
2023-01-06T22:41:26.017Z,7.60
2023-01-06T22:43:30.821Z,7.88
2023-01-06T22:45:37.278Z,8.18
2023-01-06T22:47:45.639Z,8.38
2023-01-06T22:49:50.493Z,8.00
2023-01-06T22:51:55.415Z,8.82
2023-01-06T22:54:03.153Z,8.30
2023-01-06T22:56:11.443Z,8.10
2023-01-06T22:58:16.558Z,7.97
2023-01-06T23:00:22.242Z,9.40
2023-01-06T23:02:27.495Z,8.55
2023-01-06T23:04:36.347Z,8.63
2023-01-06T23:06:41.535Z,7.88
2023-01-06T23:08:59.544Z,7.97
2023-01-06T23:11:06.708Z,7.22
2023-01-06T23:13:11.433Z,7.78
2023-01-06T23:15:16.373Z,7.28
2023-01-06T23:17:21.350Z,7.07
2023-01-06T23:19:26.067Z,7.78
2023-01-06T23:21:34.731Z,8.25
2023-01-06T23:23:40.953Z,8.02
2023-01-06T23:25:47.225Z,8.63
2023-01-06T23:27:52.083Z,8.15
2023-01-06T23:29:57.268Z,8.20
2023-01-06T23:32:02.300Z,9.38
2023-01-06T23:34:09.196Z,9.35
2023-01-06T23:36:16.652Z,8.70
2023-01-06T23:38:24.372Z,8.43
2023-01-06T23:40:31.899Z,8.40
2023-01-06T23:42:48.138Z,8.07
2023-01-06T23:44:53.568Z,8.70
2023-01-06T23:46:58.603Z,7.82
2023-01-06T23:49:03.921Z,8.02
2023-01-06T23:51:10.157Z,8.73
2023-01-06T23:53:15.737Z,8.32
2023-01-06T23:55:22.987Z,8.57
2023-01-06T23:57:27.984Z,7.45
2023-01-06T23:59:32.819Z,8.57
